sensor_id;sensor_type;location;lat;lon;timestamp;P1;durP1;ratioP1;P2;durP2;ratioP2
19869;SDS011;10097;50.862;4.696;2023-06-24T00:00:39;12.20;;;6.47;;
19869;SDS011;10097;50.862;4.696;2023-06-24T00:03:05;12.85;;;6.32;;
19869;SDS011;10097;50.862;4.696;2023-06-24T00:05:32;14.30;;;6.97;;
19869;SDS011;10097;50.862;4.696;2023-06-24T00:07:58;15.30;;;6.80;;
19869;SDS011;10097;50.862;4.696;2023-06-24T00:10:27;12.23;;;5.72;;
19869;SDS011;10097;50.862;4.696;2023-06-24T00:12:53;16.25;;;6.75;;
19869;SDS011;10097;50.862;4.696;2023-06-24T00:15:18;12.50;;;6.38;;
19869;SDS011;10097;50.862;4.696;2023-06-24T00:17:44;13.65;;;6.15;;
19869;SDS011;10097;50.862;4.696;2023-06-24T00:20:10;11.75;;;5.85;;
19869;SDS011;10097;50.862;4.696;2023-06-24T00:22:39;9.38;;;5.57;;
19869;SDS011;10097;50.862;4.696;2023-06-24T00:25:09;13.98;;;7.07;;
19869;SDS011;10097;50.862;4.696;2023-06-24T00:27:35;16.05;;;6.10;;
19869;SDS011;10097;50.862;4.696;2023-06-24T00:30:00;14.52;;;7.57;;
19869;SDS011;10097;50.862;4.696;2023-06-24T00:32:26;13.65;;;6.85;;
19869;SDS011;10097;50.862;4.696;2023-06-24T00:34:52;13.05;;;6.70;;
19869;SDS011;10097;50.862;4.696;2023-06-24T00:37:17;12.57;;;6.68;;
19869;SDS011;10097;50.862;4.696;2023-06-24T00:39:43;13.27;;;7.05;;
19869;SDS011;10097;50.862;4.696;2023-06-24T00:42:09;12.82;;;6.65;;
19869;SDS011;10097;50.862;4.696;2023-06-24T00:44:35;14.32;;;6.85;;
19869;SDS011;10097;50.862;4.696;2023-06-24T00:47:02;12.27;;;6.50;;
19869;SDS011;10097;50.862;4.696;2023-06-24T00:49:28;15.10;;;7.18;;
19869;SDS011;10097;50.862;4.696;2023-06-24T00:51:54;14.00;;;6.20;;
19869;SDS011;10097;50.862;4.696;2023-06-24T00:54:20;17.48;;;7.03;;
19869;SDS011;10097;50.862;4.696;2023-06-24T00:56:46;15.95;;;6.90;;
19869;SDS011;10097;50.862;4.696;2023-06-24T00:59:12;11.80;;;6.57;;
19869;SDS011;10097;50.862;4.696;2023-06-24T01:01:39;15.38;;;7.13;;
19869;SDS011;10097;50.862;4.696;2023-06-24T01:04:06;12.30;;;6.57;;
19869;SDS011;10097;50.862;4.696;2023-06-24T01:06:32;10.77;;;6.20;;
19869;SDS011;10097;50.862;4.696;2023-06-24T01:08:59;12.30;;;6.35;;
19869;SDS011;10097;50.862;4.696;2023-06-24T01:11:27;12.15;;;6.32;;
19869;SDS011;10097;50.862;4.696;2023-06-24T01:13:54;10.80;;;5.97;;
19869;SDS011;10097;50.862;4.696;2023-06-24T01:16:44;13.05;;;6.53;;
19869;SDS011;10097;50.862;4.696;2023-06-24T01:33:15;17.98;;;6.43;;
19869;SDS011;10097;50.862;4.696;2023-06-24T01:35:48;9.88;;;5.13;;
19869;SDS011;10097;50.862;4.696;2023-06-24T01:38:21;12.23;;;5.20;;
19869;SDS011;10097;50.862;4.696;2023-06-24T01:40:49;11.90;;;5.57;;
19869;SDS011;10097;50.862;4.696;2023-06-24T01:43:16;14.07;;;6.18;;
19869;SDS011;10097;50.862;4.696;2023-06-24T01:45:48;9.77;;;5.35;;
19869;SDS011;10097;50.862;4.696;2023-06-24T01:48:16;10.65;;;5.47;;
19869;SDS011;10097;50.862;4.696;2023-06-24T01:53:19;9.25;;;5.05;;
19869;SDS011;10097;50.862;4.696;2023-06-24T01:55:46;9.80;;;5.20;;
19869;SDS011;10097;50.862;4.696;2023-06-24T01:58:13;12.15;;;5.15;;
19869;SDS011;10097;50.862;4.696;2023-06-24T02:00:40;9.95;;;4.72;;
19869;SDS011;10097;50.862;4.696;2023-06-24T02:03:06;8.90;;;4.80;;
19869;SDS011;10097;50.862;4.696;2023-06-24T02:05:33;13.65;;;5.38;;
19869;SDS011;10097;50.862;4.696;2023-06-24T02:08:01;11.32;;;4.68;;
19869;SDS011;10097;50.862;4.696;2023-06-24T02:10:28;10.00;;;5.20;;
19869;SDS011;10097;50.862;4.696;2023-06-24T02:12:55;9.95;;;4.88;;
19869;SDS011;10097;50.862;4.696;2023-06-24T02:15:22;10.65;;;5.60;;
19869;SDS011;10097;50.862;4.696;2023-06-24T02:17:49;9.73;;;5.28;;
19869;SDS011;10097;50.862;4.696;2023-06-24T02:20:16;10.15;;;4.90;;
19869;SDS011;10097;50.862;4.696;2023-06-24T02:22:44;11.75;;;5.63;;
19869;SDS011;10097;50.862;4.696;2023-06-24T02:25:11;13.35;;;5.80;;
19869;SDS011;10097;50.862;4.696;2023-06-24T02:27:37;10.77;;;5.28;;
19869;SDS011;10097;50.862;4.696;2023-06-24T02:30:04;11.52;;;5.07;;
19869;SDS011;10097;50.862;4.696;2023-06-24T02:32:32;11.63;;;5.05;;
19869;SDS011;10097;50.862;4.696;2023-06-24T02:34:58;10.80;;;4.90;;
19869;SDS011;10097;50.862;4.696;2023-06-24T02:37:24;9.25;;;4.75;;
19869;SDS011;10097;50.862;4.696;2023-06-24T02:39:50;16.02;;;6.57;;
19869;SDS011;10097;50.862;4.696;2023-06-24T02:42:16;8.00;;;4.20;;
19869;SDS011;10097;50.862;4.696;2023-06-24T02:44:42;10.18;;;4.38;;
19869;SDS011;10097;50.862;4.696;2023-06-24T02:47:09;8.82;;;5.03;;
19869;SDS011;10097;50.862;4.696;2023-06-24T02:49:36;12.60;;;5.50;;
19869;SDS011;10097;50.862;4.696;2023-06-24T02:52:03;13.48;;;4.97;;
19869;SDS011;10097;50.862;4.696;2023-06-24T02:54:29;10.85;;;5.03;;
19869;SDS011;10097;50.862;4.696;2023-06-24T02:56:55;11.60;;;4.60;;
19869;SDS011;10097;50.862;4.696;2023-06-24T02:59:22;15.93;;;5.60;;
19869;SDS011;10097;50.862;4.696;2023-06-24T03:01:49;11.82;;;5.13;;
19869;SDS011;10097;50.862;4.696;2023-06-24T03:04:16;12.15;;;5.15;;
19869;SDS011;10097;50.862;4.696;2023-06-24T03:06:43;11.33;;;4.80;;
19869;SDS011;10097;50.862;4.696;2023-06-24T03:09:10;14.05;;;4.93;;
19869;SDS011;10097;50.862;4.696;2023-06-24T03:11:45;10.93;;;5.57;;
19869;SDS011;10097;50.862;4.696;2023-06-24T03:14:11;9.80;;;5.00;;
19869;SDS011;10097;50.862;4.696;2023-06-24T03:16:37;10.43;;;5.05;;
19869;SDS011;10097;50.862;4.696;2023-06-24T03:19:06;10.30;;;4.70;;
19869;SDS011;10097;50.862;4.696;2023-06-24T03:21:31;9.90;;;4.97;;
19869;SDS011;10097;50.862;4.696;2023-06-24T03:23:57;10.55;;;5.32;;
19869;SDS011;10097;50.862;4.696;2023-06-24T03:26:24;10.83;;;4.90;;
19869;SDS011;10097;50.862;4.696;2023-06-24T03:29:00;10.10;;;4.97;;
19869;SDS011;10097;50.862;4.696;2023-06-24T03:31:26;11.77;;;5.40;;
19869;SDS011;10097;50.862;4.696;2023-06-24T03:33:51;10.40;;;5.20;;
19869;SDS011;10097;50.862;4.696;2023-06-24T03:36:17;9.73;;;5.15;;
19869;SDS011;10097;50.862;4.696;2023-06-24T03:38:43;10.55;;;4.57;;
19869;SDS011;10097;50.862;4.696;2023-06-24T03:41:08;11.02;;;4.68;;
19869;SDS011;10097;50.862;4.696;2023-06-24T03:43:34;10.30;;;5.03;;
19869;SDS011;10097;50.862;4.696;2023-06-24T03:45:59;10.57;;;5.17;;
19869;SDS011;10097;50.862;4.696;2023-06-24T03:48:25;14.23;;;4.65;;
19869;SDS011;10097;50.862;4.696;2023-06-24T03:50:51;12.83;;;5.40;;
19869;SDS011;10097;50.862;4.696;2023-06-24T03:53:16;8.47;;;4.77;;
19869;SDS011;10097;50.862;4.696;2023-06-24T03:55:42;10.45;;;4.82;;
19869;SDS011;10097;50.862;4.696;2023-06-24T03:58:08;10.47;;;5.20;;
19869;SDS011;10097;50.862;4.696;2023-06-24T04:00:33;11.10;;;4.97;;
19869;SDS011;10097;50.862;4.696;2023-06-24T04:03:04;11.87;;;4.77;;
19869;SDS011;10097;50.862;4.696;2023-06-24T04:05:29;10.53;;;5.20;;
19869;SDS011;10097;50.862;4.696;2023-06-24T04:07:55;10.38;;;5.13;;
19869;SDS011;10097;50.862;4.696;2023-06-24T04:10:21;10.63;;;4.67;;
19869;SDS011;10097;50.862;4.696;2023-06-24T04:12:46;11.50;;;5.05;;
19869;SDS011;10097;50.862;4.696;2023-06-24T04:15:12;11.77;;;5.20;;
19869;SDS011;10097;50.862;4.696;2023-06-24T04:17:38;11.80;;;5.40;;
19869;SDS011;10097;50.862;4.696;2023-06-24T04:20:03;10.93;;;5.00;;
19869;SDS011;10097;50.862;4.696;2023-06-24T04:22:33;10.27;;;4.50;;
19869;SDS011;10097;50.862;4.696;2023-06-24T04:24:59;8.30;;;4.22;;
19869;SDS011;10097;50.862;4.696;2023-06-24T04:27:25;12.35;;;5.60;;
19869;SDS011;10097;50.862;4.696;2023-06-24T04:29:50;13.45;;;5.05;;
19869;SDS011;10097;50.862;4.696;2023-06-24T04:32:16;8.40;;;4.47;;
19869;SDS011;10097;50.862;4.696;2023-06-24T04:34:42;9.95;;;4.40;;
19869;SDS011;10097;50.862;4.696;2023-06-24T04:37:07;11.20;;;4.75;;
19869;SDS011;10097;50.862;4.696;2023-06-24T04:39:33;9.13;;;4.57;;
19869;SDS011;10097;50.862;4.696;2023-06-24T04:41:59;10.05;;;4.88;;
19869;SDS011;10097;50.862;4.696;2023-06-24T04:44:25;10.35;;;4.43;;
19869;SDS011;10097;50.862;4.696;2023-06-24T04:46:51;11.35;;;4.57;;
19869;SDS011;10097;50.862;4.696;2023-06-24T04:49:17;9.57;;;4.60;;
19869;SDS011;10097;50.862;4.696;2023-06-24T04:51:43;12.07;;;4.80;;
19869;SDS011;10097;50.862;4.696;2023-06-24T04:54:09;9.63;;;4.80;;
19869;SDS011;10097;50.862;4.696;2023-06-24T04:56:37;10.25;;;4.70;;
19869;SDS011;10097;50.862;4.696;2023-06-24T04:59:03;12.15;;;5.25;;
19869;SDS011;10097;50.862;4.696;2023-06-24T05:01:28;9.48;;;4.28;;
19869;SDS011;10097;50.862;4.696;2023-06-24T05:03:54;10.50;;;4.50;;
19869;SDS011;10097;50.862;4.696;2023-06-24T05:06:20;9.70;;;4.00;;
19869;SDS011;10097;50.862;4.696;2023-06-24T05:08:45;11.65;;;4.70;;
19869;SDS011;10097;50.862;4.696;2023-06-24T05:11:11;9.73;;;4.57;;
19869;SDS011;10097;50.862;4.696;2023-06-24T05:13:37;12.48;;;4.50;;
19869;SDS011;10097;50.862;4.696;2023-06-24T05:16:02;10.70;;;4.40;;
19869;SDS011;10097;50.862;4.696;2023-06-24T05:18:28;7.88;;;3.85;;
19869;SDS011;10097;50.862;4.696;2023-06-24T05:20:54;8.23;;;4.00;;
19869;SDS011;10097;50.862;4.696;2023-06-24T05:23:20;8.85;;;3.83;;
19869;SDS011;10097;50.862;4.696;2023-06-24T05:25:45;8.02;;;3.97;;
19869;SDS011;10097;50.862;4.696;2023-06-24T05:28:11;7.03;;;3.65;;
19869;SDS011;10097;50.862;4.696;2023-06-24T05:30:36;9.32;;;3.95;;
19869;SDS011;10097;50.862;4.696;2023-06-24T05:33:03;8.27;;;4.00;;
19869;SDS011;10097;50.862;4.696;2023-06-24T05:35:28;8.88;;;3.35;;
19869;SDS011;10097;50.862;4.696;2023-06-24T05:37:54;8.32;;;4.05;;
19869;SDS011;10097;50.862;4.696;2023-06-24T05:40:20;7.25;;;3.35;;
19869;SDS011;10097;50.862;4.696;2023-06-24T05:42:45;7.63;;;3.75;;
19869;SDS011;10097;50.862;4.696;2023-06-24T05:45:11;11.18;;;4.03;;
19869;SDS011;10097;50.862;4.696;2023-06-24T05:47:37;8.68;;;3.83;;
19869;SDS011;10097;50.862;4.696;2023-06-24T05:50:04;8.23;;;3.47;;
19869;SDS011;10097;50.862;4.696;2023-06-24T05:52:30;9.27;;;3.63;;
19869;SDS011;10097;50.862;4.696;2023-06-24T05:54:55;9.63;;;3.83;;
19869;SDS011;10097;50.862;4.696;2023-06-24T05:57:21;8.57;;;3.53;;
19869;SDS011;10097;50.862;4.696;2023-06-24T05:59:46;8.93;;;3.30;;
19869;SDS011;10097;50.862;4.696;2023-06-24T06:02:12;7.50;;;3.20;;
19869;SDS011;10097;50.862;4.696;2023-06-24T06:04:38;6.88;;;3.40;;
19869;SDS011;10097;50.862;4.696;2023-06-24T06:07:04;6.75;;;3.47;;
19869;SDS011;10097;50.862;4.696;2023-06-24T06:09:30;6.68;;;3.25;;
19869;SDS011;10097;50.862;4.696;2023-06-24T06:11:55;7.47;;;3.50;;
19869;SDS011;10097;50.862;4.696;2023-06-24T06:14:21;9.15;;;3.58;;
19869;SDS011;10097;50.862;4.696;2023-06-24T06:16:47;8.77;;;3.92;;
19869;SDS011;10097;50.862;4.696;2023-06-24T06:19:12;9.50;;;3.17;;
19869;SDS011;10097;50.862;4.696;2023-06-24T06:21:38;10.90;;;3.45;;
19869;SDS011;10097;50.862;4.696;2023-06-24T06:24:04;9.45;;;3.83;;
19869;SDS011;10097;50.862;4.696;2023-06-24T06:26:30;6.38;;;3.00;;
19869;SDS011;10097;50.862;4.696;2023-06-24T06:28:55;7.47;;;3.58;;
19869;SDS011;10097;50.862;4.696;2023-06-24T06:31:21;7.63;;;3.17;;
19869;SDS011;10097;50.862;4.696;2023-06-24T06:33:47;6.68;;;3.13;;
19869;SDS011;10097;50.862;4.696;2023-06-24T06:36:13;8.27;;;3.20;;
19869;SDS011;10097;50.862;4.696;2023-06-24T06:38:39;10.38;;;4.72;;
19869;SDS011;10097;50.862;4.696;2023-06-24T06:41:05;8.07;;;3.45;;
19869;SDS011;10097;50.862;4.696;2023-06-24T06:43:32;9.27;;;3.30;;
19869;SDS011;10097;50.862;4.696;2023-06-24T06:45:58;10.77;;;4.18;;
19869;SDS011;10097;50.862;4.696;2023-06-24T06:48:24;9.27;;;3.35;;
19869;SDS011;10097;50.862;4.696;2023-06-24T06:50:50;9.13;;;3.20;;
19869;SDS011;10097;50.862;4.696;2023-06-24T06:53:17;12.00;;;3.25;;
19869;SDS011;10097;50.862;4.696;2023-06-24T06:55:43;6.15;;;2.97;;
19869;SDS011;10097;50.862;4.696;2023-06-24T06:58:08;7.22;;;2.92;;
19869;SDS011;10097;50.862;4.696;2023-06-24T07:00:34;7.50;;;2.78;;
19869;SDS011;10097;50.862;4.696;2023-06-24T07:03:00;6.80;;;3.05;;
19869;SDS011;10097;50.862;4.696;2023-06-24T07:05:25;7.25;;;2.75;;
19869;SDS011;10097;50.862;4.696;2023-06-24T07:07:51;7.50;;;2.80;;
19869;SDS011;10097;50.862;4.696;2023-06-24T07:10:18;7.55;;;3.30;;
19869;SDS011;10097;50.862;4.696;2023-06-24T07:12:45;7.72;;;3.00;;
19869;SDS011;10097;50.862;4.696;2023-06-24T07:15:11;7.15;;;3.40;;
19869;SDS011;10097;50.862;4.696;2023-06-24T07:17:45;10.88;;;3.40;;
19869;SDS011;10097;50.862;4.696;2023-06-24T07:20:52;7.93;;;3.15;;
19869;SDS011;10097;50.862;4.696;2023-06-24T07:23:38;12.90;;;2.90;;
19869;SDS011;10097;50.862;4.696;2023-06-24T07:26:24;8.48;;;2.60;;
19869;SDS011;10097;50.862;4.696;2023-06-24T07:35:01;5.30;;;2.40;;
19869;SDS011;10097;50.862;4.696;2023-06-24T07:37:33;6.93;;;2.83;;
19869;SDS011;10097;50.862;4.696;2023-06-24T07:40:21;9.23;;;2.90;;
19869;SDS011;10097;50.862;4.696;2023-06-24T07:43:02;4.25;;;2.30;;
19869;SDS011;10097;50.862;4.696;2023-06-24T07:45:31;5.30;;;2.33;;
19869;SDS011;10097;50.862;4.696;2023-06-24T07:48:10;5.60;;;2.28;;
19869;SDS011;10097;50.862;4.696;2023-06-24T07:50:57;4.80;;;2.22;;
19869;SDS011;10097;50.862;4.696;2023-06-24T07:53:32;5.88;;;2.35;;
19869;SDS011;10097;50.862;4.696;2023-06-24T07:56:17;4.22;;;2.13;;
19869;SDS011;10097;50.862;4.696;2023-06-24T07:59:15;7.90;;;2.10;;
19869;SDS011;10097;50.862;4.696;2023-06-24T08:05:10;4.55;;;1.80;;
19869;SDS011;10097;50.862;4.696;2023-06-24T08:07:46;5.75;;;2.35;;
19869;SDS011;10097;50.862;4.696;2023-06-24T08:10:42;4.45;;;1.95;;
19869;SDS011;10097;50.862;4.696;2023-06-24T08:13:13;5.20;;;2.20;;
19869;SDS011;10097;50.862;4.696;2023-06-24T08:16:07;5.85;;;2.25;;
19869;SDS011;10097;50.862;4.696;2023-06-24T08:18:41;5.07;;;1.90;;
19869;SDS011;10097;50.862;4.696;2023-06-24T08:21:19;6.90;;;2.30;;
19869;SDS011;10097;50.862;4.696;2023-06-24T08:24:03;5.75;;;2.28;;
19869;SDS011;10097;50.862;4.696;2023-06-24T08:26:34;5.32;;;1.75;;
19869;SDS011;10097;50.862;4.696;2023-06-24T08:29:02;4.10;;;2.10;;
19869;SDS011;10097;50.862;4.696;2023-06-24T08:31:33;7.47;;;1.90;;
19869;SDS011;10097;50.862;4.696;2023-06-24T08:34:04;3.85;;;1.88;;
19869;SDS011;10097;50.862;4.696;2023-06-24T08:36:57;3.95;;;1.98;;
19869;SDS011;10097;50.862;4.696;2023-06-24T08:39:49;4.18;;;1.65;;
19869;SDS011;10097;50.862;4.696;2023-06-24T08:42:27;3.80;;;1.88;;
19869;SDS011;10097;50.862;4.696;2023-06-24T08:45:06;5.95;;;1.58;;
19869;SDS011;10097;50.862;4.696;2023-06-24T08:47:43;3.67;;;1.80;;
19869;SDS011;10097;50.862;4.696;2023-06-24T08:50:34;3.28;;;1.45;;
19869;SDS011;10097;50.862;4.696;2023-06-24T08:53:30;5.03;;;1.65;;
19869;SDS011;10097;50.862;4.696;2023-06-24T08:56:18;4.07;;;1.60;;
19869;SDS011;10097;50.862;4.696;2023-06-24T08:58:50;4.40;;;1.70;;
19869;SDS011;10097;50.862;4.696;2023-06-24T09:01:26;5.05;;;2.00;;
19869;SDS011;10097;50.862;4.696;2023-06-24T09:04:11;5.22;;;1.92;;
19869;SDS011;10097;50.862;4.696;2023-06-24T09:07:02;4.88;;;2.08;;
19869;SDS011;10097;50.862;4.696;2023-06-24T09:09:44;4.75;;;1.90;;
19869;SDS011;10097;50.862;4.696;2023-06-24T09:12:28;8.57;;;2.03;;
19869;SDS011;10097;50.862;4.696;2023-06-24T09:14:57;3.88;;;1.58;;
19869;SDS011;10097;50.862;4.696;2023-06-24T09:17:23;5.05;;;2.20;;
19869;SDS011;10097;50.862;4.696;2023-06-24T09:20:28;5.72;;;2.08;;
19869;SDS011;10097;50.862;4.696;2023-06-24T09:23:13;4.38;;;1.92;;
19869;SDS011;10097;50.862;4.696;2023-06-24T09:25:46;3.05;;;1.60;;
19869;SDS011;10097;50.862;4.696;2023-06-24T09:28:46;4.13;;;1.67;;
19869;SDS011;10097;50.862;4.696;2023-06-24T09:31:24;3.75;;;1.60;;
19869;SDS011;10097;50.862;4.696;2023-06-24T09:34:26;3.33;;;1.63;;
19869;SDS011;10097;50.862;4.696;2023-06-24T09:37:20;5.50;;;1.63;;
19869;SDS011;10097;50.862;4.696;2023-06-24T09:39:58;3.70;;;1.65;;
19869;SDS011;10097;50.862;4.696;2023-06-24T09:42:55;4.55;;;1.98;;
19869;SDS011;10097;50.862;4.696;2023-06-24T09:45:36;4.18;;;1.60;;
19869;SDS011;10097;50.862;4.696;2023-06-24T09:48:25;3.90;;;1.50;;
19869;SDS011;10097;50.862;4.696;2023-06-24T09:51:09;4.80;;;1.42;;
19869;SDS011;10097;50.862;4.696;2023-06-24T09:53:49;4.07;;;1.95;;
19869;SDS011;10097;50.862;4.696;2023-06-24T09:59:19;3.75;;;1.38;;
19869;SDS011;10097;50.862;4.696;2023-06-24T10:01:49;3.25;;;1.30;;
19869;SDS011;10097;50.862;4.696;2023-06-24T10:04:38;2.45;;;1.40;;
19869;SDS011;10097;50.862;4.696;2023-06-24T10:07:11;3.10;;;1.48;;
19869;SDS011;10097;50.862;4.696;2023-06-24T10:09:44;5.05;;;1.48;;
19869;SDS011;10097;50.862;4.696;2023-06-24T10:12:13;3.85;;;1.80;;
19869;SDS011;10097;50.862;4.696;2023-06-24T10:14:44;4.50;;;1.70;;
19869;SDS011;10097;50.862;4.696;2023-06-24T10:17:42;5.85;;;1.80;;
19869;SDS011;10097;50.862;4.696;2023-06-24T10:20:25;4.93;;;1.80;;
19869;SDS011;10097;50.862;4.696;2023-06-24T10:22:51;5.47;;;1.55;;
19869;SDS011;10097;50.862;4.696;2023-06-24T10:25:34;3.25;;;1.65;;
19869;SDS011;10097;50.862;4.696;2023-06-24T10:28:13;5.07;;;1.48;;
19869;SDS011;10097;50.862;4.696;2023-06-24T10:30:54;5.70;;;1.70;;
19869;SDS011;10097;50.862;4.696;2023-06-24T10:37:20;3.75;;;1.50;;
19869;SDS011;10097;50.862;4.696;2023-06-24T10:39:52;6.57;;;1.50;;
19869;SDS011;10097;50.862;4.696;2023-06-24T10:42:39;3.10;;;1.33;;
19869;SDS011;10097;50.862;4.696;2023-06-24T10:45:34;3.67;;;1.50;;
19869;SDS011;10097;50.862;4.696;2023-06-24T10:48:31;3.38;;;1.40;;
19869;SDS011;10097;50.862;4.696;2023-06-24T10:51:07;6.78;;;2.03;;
19869;SDS011;10097;50.862;4.696;2023-06-24T10:53:37;4.22;;;1.80;;
19869;SDS011;10097;50.862;4.696;2023-06-24T10:56:41;5.10;;;1.80;;
19869;SDS011;10097;50.862;4.696;2023-06-24T10:59:32;4.07;;;1.58;;
19869;SDS011;10097;50.862;4.696;2023-06-24T11:02:22;2.50;;;1.23;;
19869;SDS011;10097;50.862;4.696;2023-06-24T11:04:58;3.38;;;1.20;;
19869;SDS011;10097;50.862;4.696;2023-06-24T11:07:27;4.53;;;1.40;;
19869;SDS011;10097;50.862;4.696;2023-06-24T11:10:01;3.75;;;1.45;;
19869;SDS011;10097;50.862;4.696;2023-06-24T11:12:38;5.78;;;1.90;;
19869;SDS011;10097;50.862;4.696;2023-06-24T11:15:07;3.65;;;1.60;;
19869;SDS011;10097;50.862;4.696;2023-06-24T11:17:52;3.13;;;1.33;;
19869;SDS011;10097;50.862;4.696;2023-06-24T11:20:22;5.15;;;2.35;;
19869;SDS011;10097;50.862;4.696;2023-06-24T11:23:16;3.70;;;1.60;;
19869;SDS011;10097;50.862;4.696;2023-06-24T11:25:50;2.97;;;1.50;;
19869;SDS011;10097;50.862;4.696;2023-06-24T11:28:21;4.80;;;1.80;;
19869;SDS011;10097;50.862;4.696;2023-06-24T11:30:54;2.85;;;1.52;;
19869;SDS011;10097;50.862;4.696;2023-06-24T11:33:40;2.42;;;1.48;;
19869;SDS011;10097;50.862;4.696;2023-06-24T11:36:17;4.45;;;1.88;;
19869;SDS011;10097;50.862;4.696;2023-06-24T11:39:02;4.05;;;1.75;;
19869;SDS011;10097;50.862;4.696;2023-06-24T11:41:49;4.15;;;1.38;;
19869;SDS011;10097;50.862;4.696;2023-06-24T11:44:43;3.63;;;1.50;;
19869;SDS011;10097;50.862;4.696;2023-06-24T11:47:33;1.38;;;1.02;;
19869;SDS011;10097;50.862;4.696;2023-06-24T11:50:08;3.17;;;1.48;;
19869;SDS011;10097;50.862;4.696;2023-06-24T11:52:54;3.13;;;1.70;;
19869;SDS011;10097;50.862;4.696;2023-06-24T11:55:25;3.17;;;1.35;;
19869;SDS011;10097;50.862;4.696;2023-06-24T11:58:03;3.63;;;1.65;;
19869;SDS011;10097;50.862;4.696;2023-06-24T12:00:38;2.25;;;1.33;;
19869;SDS011;10097;50.862;4.696;2023-06-24T12:03:11;3.33;;;1.60;;
19869;SDS011;10097;50.862;4.696;2023-06-24T12:05:57;4.18;;;1.65;;
19869;SDS011;10097;50.862;4.696;2023-06-24T12:08:28;3.00;;;1.60;;
19869;SDS011;10097;50.862;4.696;2023-06-24T12:11:01;3.30;;;1.27;;
19869;SDS011;10097;50.862;4.696;2023-06-24T12:13:38;2.40;;;1.33;;
19869;SDS011;10097;50.862;4.696;2023-06-24T12:16:13;5.93;;;1.85;;
19869;SDS011;10097;50.862;4.696;2023-06-24T12:18:51;3.67;;;1.60;;
19869;SDS011;10097;50.862;4.696;2023-06-24T12:21:45;2.85;;;1.65;;
19869;SDS011;10097;50.862;4.696;2023-06-24T12:24:41;2.88;;;1.90;;
19869;SDS011;10097;50.862;4.696;2023-06-24T12:27:22;3.42;;;1.50;;
19869;SDS011;10097;50.862;4.696;2023-06-24T12:30:07;2.80;;;1.63;;
19869;SDS011;10097;50.862;4.696;2023-06-24T12:32:59;3.15;;;1.60;;
19869;SDS011;10097;50.862;4.696;2023-06-24T12:35:33;3.08;;;1.58;;
19869;SDS011;10097;50.862;4.696;2023-06-24T12:38:04;3.28;;;1.60;;
19869;SDS011;10097;50.862;4.696;2023-06-24T12:41:06;3.30;;;1.70;;
19869;SDS011;10097;50.862;4.696;2023-06-24T12:43:52;3.28;;;1.40;;
19869;SDS011;10097;50.862;4.696;2023-06-24T12:46:24;2.88;;;1.45;;
19869;SDS011;10097;50.862;4.696;2023-06-24T12:48:57;4.97;;;1.50;;
19869;SDS011;10097;50.862;4.696;2023-06-24T12:51:35;4.18;;;2.20;;
19869;SDS011;10097;50.862;4.696;2023-06-24T12:54:19;3.85;;;1.83;;
19869;SDS011;10097;50.862;4.696;2023-06-24T12:56:47;3.20;;;1.50;;
19869;SDS011;10097;50.862;4.696;2023-06-24T12:59:25;3.78;;;1.90;;
19869;SDS011;10097;50.862;4.696;2023-06-24T13:02:01;4.70;;;1.70;;
19869;SDS011;10097;50.862;4.696;2023-06-24T13:04:32;2.47;;;1.48;;
19869;SDS011;10097;50.862;4.696;2023-06-24T13:07:06;4.63;;;1.83;;
19869;SDS011;10097;50.862;4.696;2023-06-24T13:09:43;3.08;;;1.48;;
19869;SDS011;10097;50.862;4.696;2023-06-24T13:12:11;4.40;;;1.92;;
19869;SDS011;10097;50.862;4.696;2023-06-24T13:14:39;3.95;;;1.77;;
19869;SDS011;10097;50.862;4.696;2023-06-24T13:17:08;4.45;;;1.88;;
19869;SDS011;10097;50.862;4.696;2023-06-24T13:19:47;2.72;;;1.65;;
19869;SDS011;10097;50.862;4.696;2023-06-24T13:22:20;3.40;;;1.85;;
19869;SDS011;10097;50.862;4.696;2023-06-24T13:24:55;5.93;;;1.30;;
19869;SDS011;10097;50.862;4.696;2023-06-24T13:27:44;4.43;;;1.88;;
19869;SDS011;10097;50.862;4.696;2023-06-24T13:30:22;3.92;;;1.73;;
19869;SDS011;10097;50.862;4.696;2023-06-24T13:32:50;4.72;;;1.77;;
19869;SDS011;10097;50.862;4.696;2023-06-24T13:35:19;4.22;;;1.80;;
19869;SDS011;10097;50.862;4.696;2023-06-24T13:37:47;3.80;;;1.95;;
19869;SDS011;10097;50.862;4.696;2023-06-24T13:40:17;3.90;;;1.65;;
19869;SDS011;10097;50.862;4.696;2023-06-24T13:42:46;4.85;;;2.05;;
19869;SDS011;10097;50.862;4.696;2023-06-24T13:45:17;5.80;;;1.98;;
19869;SDS011;10097;50.862;4.696;2023-06-24T13:47:44;3.13;;;1.60;;
19869;SDS011;10097;50.862;4.696;2023-06-24T13:50:20;5.93;;;1.88;;
19869;SDS011;10097;50.862;4.696;2023-06-24T13:52:54;3.35;;;1.70;;
19869;SDS011;10097;50.862;4.696;2023-06-24T13:55:21;3.60;;;1.52;;
19869;SDS011;10097;50.862;4.696;2023-06-24T13:57:54;3.40;;;1.67;;
19869;SDS011;10097;50.862;4.696;2023-06-24T14:00:35;3.97;;;1.98;;
19869;SDS011;10097;50.862;4.696;2023-06-24T14:03:13;2.95;;;1.80;;
19869;SDS011;10097;50.862;4.696;2023-06-24T14:09:16;3.97;;;2.05;;
19869;SDS011;10097;50.862;4.696;2023-06-24T14:11:42;6.30;;;2.03;;
19869;SDS011;10097;50.862;4.696;2023-06-24T14:14:07;2.53;;;1.63;;
19869;SDS011;10097;50.862;4.696;2023-06-24T14:16:33;4.22;;;1.65;;
19869;SDS011;10097;50.862;4.696;2023-06-24T14:18:59;3.75;;;1.85;;
19869;SDS011;10097;50.862;4.696;2023-06-24T14:21:27;3.00;;;1.60;;
19869;SDS011;10097;50.862;4.696;2023-06-24T14:23:56;7.10;;;2.20;;
19869;SDS011;10097;50.862;4.696;2023-06-24T14:26:27;5.30;;;1.80;;
19869;SDS011;10097;50.862;4.696;2023-06-24T14:28:53;3.70;;;1.58;;
19869;SDS011;10097;50.862;4.696;2023-06-24T14:31:19;4.93;;;1.80;;
19869;SDS011;10097;50.862;4.696;2023-06-24T14:33:48;3.65;;;1.63;;
19869;SDS011;10097;50.862;4.696;2023-06-24T14:36:22;3.15;;;1.80;;
19869;SDS011;10097;50.862;4.696;2023-06-24T14:38:48;3.65;;;1.60;;
19869;SDS011;10097;50.862;4.696;2023-06-24T14:41:19;3.80;;;2.15;;
19869;SDS011;10097;50.862;4.696;2023-06-24T14:43:52;4.22;;;1.75;;
19869;SDS011;10097;50.862;4.696;2023-06-24T14:46:20;3.88;;;1.80;;
19869;SDS011;10097;50.862;4.696;2023-06-24T14:48:46;5.45;;;1.80;;
19869;SDS011;10097;50.862;4.696;2023-06-24T14:51:20;3.90;;;1.85;;
19869;SDS011;10097;50.862;4.696;2023-06-24T14:53:47;4.05;;;1.90;;
19869;SDS011;10097;50.862;4.696;2023-06-24T14:56:13;3.58;;;1.75;;
19869;SDS011;10097;50.862;4.696;2023-06-24T14:58:40;3.25;;;1.85;;
19869;SDS011;10097;50.862;4.696;2023-06-24T15:01:06;6.88;;;2.10;;
19869;SDS011;10097;50.862;4.696;2023-06-24T15:03:37;6.35;;;1.80;;
19869;SDS011;10097;50.862;4.696;2023-06-24T15:06:05;3.55;;;1.90;;
19869;SDS011;10097;50.862;4.696;2023-06-24T15:08:34;5.75;;;1.92;;
19869;SDS011;10097;50.862;4.696;2023-06-24T15:11:07;7.75;;;2.10;;
19869;SDS011;10097;50.862;4.696;2023-06-24T15:13:35;3.85;;;1.67;;
19869;SDS011;10097;50.862;4.696;2023-06-24T15:16:06;3.00;;;1.60;;
19869;SDS011;10097;50.862;4.696;2023-06-24T15:18:34;3.75;;;1.90;;
19869;SDS011;10097;50.862;4.696;2023-06-24T15:21:05;6.30;;;2.05;;
19869;SDS011;10097;50.862;4.696;2023-06-24T15:23:34;4.35;;;2.00;;
19869;SDS011;10097;50.862;4.696;2023-06-24T15:26:07;5.90;;;1.92;;
19869;SDS011;10097;50.862;4.696;2023-06-24T15:28:35;3.47;;;1.83;;
19869;SDS011;10097;50.862;4.696;2023-06-24T15:31:01;3.35;;;1.90;;
19869;SDS011;10097;50.862;4.696;2023-06-24T15:33:27;6.57;;;1.95;;
19869;SDS011;10097;50.862;4.696;2023-06-24T15:35:52;3.40;;;1.90;;
19869;SDS011;10097;50.862;4.696;2023-06-24T15:38:18;3.60;;;2.00;;
19869;SDS011;10097;50.862;4.696;2023-06-24T15:40:44;4.82;;;1.80;;
19869;SDS011;10097;50.862;4.696;2023-06-24T15:43:13;4.93;;;2.15;;
19869;SDS011;10097;50.862;4.696;2023-06-24T15:45:38;4.97;;;1.63;;
19869;SDS011;10097;50.862;4.696;2023-06-24T15:48:04;6.47;;;1.70;;